createdAt,value
2019-04-30T00:00:01.032Z,28.60
2019-04-30T00:02:35.922Z,29.20
2019-04-30T00:05:01.320Z,29.77
2019-04-30T00:07:29.838Z,27.33
2019-04-30T00:09:58.553Z,27.83
2019-04-30T00:12:30.916Z,29.10
2019-04-30T00:14:57.487Z,30.20
2019-04-30T00:17:25.915Z,31.47
2019-04-30T00:22:30.756Z,29.23
2019-04-30T00:24:50.052Z,30.03
2019-04-30T00:27:20.993Z,28.27
2019-04-30T00:29:49.095Z,30.50
2019-04-30T00:32:17.517Z,32.07
2019-04-30T00:34:46.017Z,28.50
2019-04-30T00:37:18.660Z,29.30
2019-04-30T00:39:51.136Z,29.67
2019-04-30T00:42:18.718Z,29.00
2019-04-30T00:44:45.651Z,29.10
2019-04-30T00:47:15.430Z,29.20
2019-04-30T00:49:44.864Z,29.53
2019-04-30T00:52:15.393Z,30.07
2019-04-30T00:54:45.232Z,30.60
2019-04-30T00:57:15.182Z,31.80
2019-04-30T00:59:44.603Z,30.70
2019-04-30T01:02:20.043Z,31.23
2019-04-30T01:04:47.880Z,30.03
2019-04-30T01:07:16.481Z,30.30
2019-04-30T01:09:49.398Z,30.43
2019-04-30T01:12:19.197Z,29.00
2019-04-30T01:14:45.394Z,30.13
2019-04-30T01:17:13.975Z,31.70
2019-04-30T01:19:46.033Z,30.97
2019-04-30T01:22:12.857Z,29.30
2019-04-30T01:24:41.942Z,30.43
2019-04-30T01:27:10.812Z,30.13
2019-04-30T01:29:44.190Z,31.50
2019-04-30T01:32:10.501Z,29.10
2019-04-30T01:34:44.087Z,36.17
2019-04-30T01:37:09.895Z,31.50
2019-04-30T01:39:39.145Z,28.80
2019-04-30T01:42:11.239Z,30.40
2019-04-30T01:44:39.196Z,27.90
2019-04-30T01:47:08.953Z,29.87
2019-04-30T01:49:42.945Z,31.40
2019-04-30T01:52:09.497Z,31.50
2019-04-30T01:54:39.104Z,33.37
2019-04-30T01:57:15.247Z,31.60
2019-04-30T02:00:03.502Z,30.27
2019-04-30T02:02:33.762Z,45.73
2019-04-30T02:05:03.249Z,32.63
2019-04-30T02:07:31.723Z,32.93
2019-04-30T02:10:00.144Z,30.23
2019-04-30T02:12:29.691Z,31.07
2019-04-30T02:14:59.727Z,33.27
2019-04-30T02:17:29.257Z,33.10
2019-04-30T02:19:59.318Z,33.43
2019-04-30T02:22:28.820Z,32.03
2019-04-30T02:24:58.642Z,32.17
2019-04-30T02:27:29.294Z,31.87
2019-04-30T02:29:59.420Z,35.20
2019-04-30T02:32:30.219Z,30.43
2019-04-30T02:35:11.384Z,32.93
2019-04-30T02:37:43.473Z,33.83
2019-04-30T02:40:11.851Z,33.13
2019-04-30T02:42:40.347Z,31.20
2019-04-30T02:45:10.371Z,31.03
2019-04-30T02:47:39.997Z,32.67
2019-04-30T02:50:15.160Z,32.13
2019-04-30T02:52:41.122Z,31.70
2019-04-30T02:55:12.608Z,33.00
2019-04-30T02:57:41.077Z,35.43
2019-04-30T03:00:14.269Z,34.83
2019-04-30T03:02:42.731Z,33.80
2019-04-30T03:05:13.529Z,36.43
2019-04-30T03:07:42.044Z,35.87
2019-04-30T03:10:11.006Z,36.70
2019-04-30T03:12:40.502Z,39.60
2019-04-30T03:15:10.283Z,36.40
2019-04-30T03:17:43.641Z,35.67
2019-04-30T03:20:31.141Z,39.13
2019-04-30T03:22:46.621Z,38.83
2019-04-30T03:25:15.052Z,40.27
2019-04-30T03:27:43.792Z,37.93
2019-04-30T03:30:12.624Z,39.33
2019-04-30T03:32:43.053Z,40.20
2019-04-30T03:35:12.915Z,40.57
2019-04-30T03:37:41.581Z,35.60
2019-04-30T03:40:13.200Z,39.03
2019-04-30T03:42:40.829Z,40.33
2019-04-30T03:45:10.300Z,39.50
2019-04-30T03:47:40.282Z,38.53
2019-04-30T03:50:09.352Z,37.60
2019-04-30T03:52:39.403Z,40.13
2019-04-30T03:55:09.211Z,39.90
2019-04-30T03:57:39.911Z,38.77
2019-04-30T04:00:09.472Z,39.80
2019-04-30T04:02:40.607Z,38.07
2019-04-30T04:05:14.525Z,41.40
2019-04-30T04:07:52.507Z,42.13
2019-04-30T04:10:35.748Z,40.50
2019-04-30T04:13:04.168Z,38.33
2019-04-30T04:15:32.651Z,39.17
2019-04-30T04:18:01.064Z,39.60
2019-04-30T04:20:29.965Z,44.37
2019-04-30T04:22:59.868Z,44.57
2019-04-30T04:25:29.916Z,41.10
2019-04-30T04:28:00.456Z,40.90
2019-04-30T04:30:29.814Z,38.03
2019-04-30T04:32:59.864Z,41.20
2019-04-30T04:35:29.868Z,44.10
2019-04-30T04:38:00.439Z,42.87
2019-04-30T04:40:30.251Z,42.47
2019-04-30T04:43:00.268Z,43.47
2019-04-30T04:45:30.545Z,43.90
2019-04-30T04:48:00.029Z,44.00
2019-04-30T04:50:30.228Z,45.87
2019-04-30T04:52:59.561Z,47.67
2019-04-30T04:55:29.997Z,43.63
2019-04-30T04:57:59.833Z,45.77
2019-04-30T05:00:29.392Z,42.07
2019-04-30T05:02:59.688Z,47.03
2019-04-30T05:05:29.836Z,44.20
2019-04-30T05:07:58.557Z,44.47
2019-04-30T05:10:27.015Z,47.77
2019-04-30T05:12:55.461Z,43.50
2019-04-30T05:15:23.869Z,47.87
2019-04-30T05:17:52.309Z,45.47
2019-04-30T05:20:20.724Z,43.93
2019-04-30T05:22:49.353Z,49.43
2019-04-30T05:25:19.095Z,44.40
2019-04-30T05:27:54.349Z,44.13
2019-04-30T05:30:26.709Z,43.27
2019-04-30T05:32:59.171Z,45.67
2019-04-30T05:35:28.403Z,42.37
2019-04-30T05:38:09.350Z,42.63
2019-04-30T05:40:42.658Z,42.20
2019-04-30T05:43:15.920Z,45.57
2019-04-30T05:45:45.522Z,42.80
2019-04-30T05:48:13.988Z,44.77
2019-04-30T05:50:45.454Z,41.63
2019-04-30T05:53:19.043Z,40.57
2019-04-30T05:55:51.446Z,41.70
2019-04-30T05:58:23.587Z,42.90
2019-04-30T06:00:52.724Z,40.47
2019-04-30T06:03:29.843Z,42.67
2019-04-30T06:05:52.840Z,40.43
2019-04-30T06:08:25.614Z,41.40
2019-04-30T06:10:59.884Z,41.47
2019-04-30T06:13:33.120Z,39.93
2019-04-30T06:16:09.140Z,40.73
2019-04-30T06:18:43.444Z,41.40
2019-04-30T06:21:14.301Z,40.00
2019-04-30T06:23:42.734Z,35.10
2019-04-30T06:26:13.152Z,40.40
2019-04-30T06:28:43.970Z,38.00
2019-04-30T06:31:22.295Z,37.87
2019-04-30T06:33:50.838Z,40.10
2019-04-30T06:36:20.150Z,39.77
2019-04-30T06:38:49.094Z,37.50
2019-04-30T06:41:20.460Z,38.20
2019-04-30T06:43:52.116Z,38.17
2019-04-30T06:46:21.041Z,40.07
2019-04-30T06:48:51.120Z,36.20
2019-04-30T06:51:20.976Z,36.70
2019-04-30T06:53:53.944Z,36.60
2019-04-30T06:56:28.894Z,35.53
2019-04-30T06:58:54.049Z,38.30
2019-04-30T07:01:25.554Z,34.97
2019-04-30T07:03:58.840Z,32.33
2019-04-30T07:06:36.777Z,30.90
2019-04-30T07:09:08.780Z,33.90
2019-04-30T07:11:40.908Z,33.73
2019-04-30T07:14:12.774Z,33.00
2019-04-30T07:16:49.622Z,31.80
2019-04-30T07:19:32.059Z,36.60
2019-04-30T07:21:54.588Z,32.87
2019-04-30T07:24:29.548Z,35.23
2019-04-30T07:27:02.785Z,34.90
2019-04-30T07:29:35.990Z,33.63
2019-04-30T07:32:09.231Z,33.20
2019-04-30T07:34:37.833Z,33.47
2019-04-30T07:37:15.986Z,33.30
2019-04-30T07:39:39.072Z,34.27
2019-04-30T07:42:13.648Z,32.07
2019-04-30T07:44:46.280Z,34.10
2019-04-30T07:47:19.719Z,32.10
2019-04-30T07:49:55.831Z,32.13
2019-04-30T07:52:24.979Z,36.40
2019-04-30T07:54:54.182Z,34.37
2019-04-30T07:57:22.779Z,34.87
2019-04-30T07:59:54.032Z,33.17
2019-04-30T08:02:39.542Z,34.10
2019-04-30T08:05:10.550Z,33.40
2019-04-30T08:07:39.168Z,32.77
2019-04-30T08:10:13.788Z,33.70
2019-04-30T08:12:45.534Z,31.40
2019-04-30T08:15:19.813Z,31.23
2019-04-30T08:18:02.781Z,31.80
2019-04-30T08:20:25.606Z,32.90
2019-04-30T08:22:54.078Z,31.03
2019-04-30T08:25:22.603Z,32.30
2019-04-30T08:27:55.827Z,31.73
2019-04-30T08:30:30.044Z,29.00
2019-04-30T08:33:04.117Z,29.87
2019-04-30T08:35:39.615Z,27.93
2019-04-30T08:38:10.924Z,27.60
2019-04-30T08:40:55.539Z,28.17
2019-04-30T08:43:17.168Z,27.67
2019-04-30T08:45:45.616Z,27.27
2019-04-30T08:48:14.348Z,29.40
2019-04-30T08:50:45.981Z,28.47
2019-04-30T08:53:26.453Z,29.20
2019-04-30T08:55:46.611Z,28.00
2019-04-30T08:58:15.352Z,26.80
2019-04-30T09:00:48.585Z,25.20
2019-04-30T09:03:20.811Z,25.33
2019-04-30T09:05:52.113Z,24.27
2019-04-30T09:08:21.135Z,26.70
2019-04-30T09:10:49.711Z,25.20
2019-04-30T09:13:20.382Z,23.63
2019-04-30T09:15:50.383Z,22.30
2019-04-30T09:18:19.197Z,25.60
2019-04-30T09:20:49.529Z,22.90
2019-04-30T09:23:24.119Z,23.13
2019-04-30T09:25:55.429Z,23.00
2019-04-30T09:28:25.194Z,21.00
2019-04-30T09:30:53.688Z,21.00
2019-04-30T09:33:24.374Z,21.33
2019-04-30T09:36:00.042Z,22.10
2019-04-30T09:38:31.736Z,23.27
2019-04-30T09:41:04.375Z,23.90
2019-04-30T09:43:34.516Z,22.70
2019-04-30T09:46:14.747Z,23.00
2019-04-30T09:48:33.324Z,22.73
2019-04-30T09:51:05.300Z,23.50
2019-04-30T09:53:41.611Z,24.73
2019-04-30T09:56:14.455Z,23.40
2019-04-30T09:58:45.875Z,21.70
2019-04-30T10:01:14.367Z,22.60
2019-04-30T10:03:43.199Z,22.03
2019-04-30T10:06:16.376Z,22.53
2019-04-30T10:08:51.270Z,22.50
2019-04-30T10:11:43.519Z,21.83
2019-04-30T10:14:13.887Z,19.63
2019-04-30T10:16:49.568Z,20.47
2019-04-30T10:19:20.251Z,20.80
2019-04-30T10:21:51.055Z,21.43
2019-04-30T10:24:19.655Z,23.23
2019-04-30T10:26:49.675Z,23.63
2019-04-30T10:29:21.260Z,24.10
2019-04-30T10:31:58.761Z,22.23
2019-04-30T10:34:31.159Z,22.03
2019-04-30T10:37:08.947Z,20.10
2019-04-30T10:39:39.654Z,20.93
2019-04-30T10:42:12.282Z,19.97
2019-04-30T10:44:42.166Z,21.70
2019-04-30T10:47:11.262Z,21.73
2019-04-30T10:49:40.524Z,23.23
2019-04-30T10:52:11.547Z,21.83
2019-04-30T10:54:40.357Z,18.50
2019-04-30T10:57:08.838Z,20.00
2019-04-30T10:59:40.611Z,19.97
2019-04-30T11:02:13.621Z,19.80
2019-04-30T11:04:47.452Z,18.87
2019-04-30T11:07:15.671Z,19.00
2019-04-30T11:09:44.393Z,19.00
2019-04-30T11:12:16.511Z,21.67
2019-04-30T11:14:48.738Z,23.00
2019-04-30T11:17:24.766Z,19.93
2019-04-30T11:19:59.169Z,26.30
2019-04-30T11:22:31.747Z,18.93
2019-04-30T11:25:05.351Z,20.27
2019-04-30T11:27:36.312Z,20.67
2019-04-30T11:30:21.262Z,21.50
2019-04-30T11:32:48.418Z,19.23
2019-04-30T11:35:21.962Z,24.70
2019-04-30T11:37:51.901Z,22.87
2019-04-30T11:40:36.925Z,21.83
2019-04-30T11:43:06.263Z,20.80
2019-04-30T11:45:53.573Z,22.63
2019-04-30T11:48:29.425Z,19.27
2019-04-30T11:51:05.623Z,20.90
2019-04-30T11:53:36.143Z,19.67
2019-04-30T11:56:10.137Z,21.37
2019-04-30T11:58:38.933Z,29.40
2019-04-30T12:01:11.793Z,18.10
2019-04-30T12:03:40.222Z,24.10
2019-04-30T12:06:12.388Z,24.53
2019-04-30T12:08:59.970Z,27.00
2019-04-30T12:11:36.394Z,30.10
2019-04-30T12:14:09.708Z,21.00
2019-04-30T12:16:43.672Z,24.53
2019-04-30T12:19:18.959Z,27.60
2019-04-30T12:21:52.412Z,69.23
2019-04-30T12:24:25.373Z,64.87
2019-04-30T12:26:59.238Z,96.50
2019-04-30T12:29:30.062Z,22.00
2019-04-30T12:32:06.200Z,40.70
2019-04-30T12:34:31.604Z,24.50
2019-04-30T12:37:06.695Z,22.83
2019-04-30T12:39:35.784Z,23.27
2019-04-30T12:42:08.806Z,24.10
2019-04-30T12:44:43.694Z,23.83
2019-04-30T12:47:21.721Z,24.80
2019-04-30T12:50:00.935Z,22.33
2019-04-30T12:52:30.589Z,21.93
2019-04-30T12:55:14.985Z,22.10
2019-04-30T12:57:39.084Z,21.23
2019-04-30T13:00:12.440Z,22.23
2019-04-30T13:02:43.471Z,21.03
2019-04-30T13:05:35.973Z,24.37
2019-04-30T13:08:05.612Z,22.90
2019-04-30T13:10:38.143Z,23.03
2019-04-30T13:13:13.022Z,22.03
2019-04-30T13:15:46.327Z,23.70
2019-04-30T13:18:19.567Z,22.87
2019-04-30T13:20:45.161Z,22.03
2019-04-30T13:23:15.730Z,22.20
2019-04-30T13:25:51.709Z,24.40
2019-04-30T13:28:24.045Z,22.83
2019-04-30T13:30:55.487Z,20.63
2019-04-30T13:33:28.968Z,21.73
2019-04-30T13:35:58.839Z,22.40
2019-04-30T13:38:44.603Z,24.27
2019-04-30T13:41:27.105Z,23.83
2019-04-30T13:43:58.740Z,25.10
2019-04-30T13:46:28.496Z,26.57
2019-04-30T13:48:57.230Z,24.97
2019-04-30T13:51:28.445Z,23.17
2019-04-30T13:54:04.398Z,22.13
2019-04-30T13:56:39.756Z,23.53
2019-04-30T13:59:11.743Z,22.10
2019-04-30T14:01:45.279Z,21.27
2019-04-30T14:04:18.719Z,20.37
2019-04-30T14:06:57.755Z,20.27
2019-04-30T14:09:30.459Z,20.87
2019-04-30T14:12:04.833Z,21.50
2019-04-30T14:14:36.652Z,22.90
2019-04-30T14:17:09.333Z,21.73
2019-04-30T14:19:43.269Z,19.77
2019-04-30T14:22:19.120Z,18.23
2019-04-30T14:24:47.640Z,23.40
2019-04-30T14:27:16.196Z,22.50
2019-04-30T14:29:44.644Z,21.07
2019-04-30T14:32:13.362Z,20.60
2019-04-30T14:34:41.919Z,22.70
2019-04-30T14:37:10.370Z,21.57
2019-04-30T14:39:39.066Z,23.03
2019-04-30T14:42:10.933Z,22.03
2019-04-30T14:44:40.111Z,20.90
2019-04-30T14:47:26.036Z,21.70
2019-04-30T14:50:05.192Z,22.50
2019-04-30T14:52:34.576Z,23.00
2019-04-30T14:55:04.894Z,20.53
2019-04-30T14:57:46.949Z,21.03
2019-04-30T15:00:33.934Z,18.87
2019-04-30T15:03:14.297Z,21.30
2019-04-30T15:05:48.871Z,21.50
2019-04-30T15:08:13.739Z,22.27
2019-04-30T15:10:46.675Z,21.50
2019-04-30T15:13:19.379Z,21.03
2019-04-30T15:15:49.102Z,18.83
2019-04-30T15:18:19.173Z,20.77
2019-04-30T15:20:49.789Z,19.40
2019-04-30T15:23:24.323Z,21.43
2019-04-30T15:25:52.784Z,21.03
2019-04-30T15:28:22.579Z,19.03
2019-04-30T15:30:50.979Z,21.60
2019-04-30T15:33:36.082Z,19.00
2019-04-30T15:36:05.345Z,21.47
2019-04-30T15:38:51.920Z,20.10
2019-04-30T15:41:21.108Z,22.00
2019-04-30T15:43:49.854Z,22.17
2019-04-30T15:46:18.371Z,22.83
2019-04-30T15:48:46.803Z,23.50
2019-04-30T15:51:15.591Z,23.20
2019-04-30T15:53:44.081Z,21.83
2019-04-30T15:56:12.505Z,20.23
2019-04-30T15:58:59.735Z,20.37
2019-04-30T16:01:29.072Z,22.30
2019-04-30T16:03:57.963Z,21.70
2019-04-30T16:06:28.459Z,22.20
2019-04-30T16:09:01.083Z,20.87
2019-04-30T16:11:49.337Z,23.73
2019-04-30T16:14:19.525Z,24.57
2019-04-30T16:16:52.699Z,22.40
2019-04-30T16:19:21.257Z,23.13
2019-04-30T16:21:49.684Z,21.60
2019-04-30T16:24:18.810Z,23.00
2019-04-30T16:26:52.084Z,23.27
2019-04-30T16:29:17.503Z,24.10
2019-04-30T16:31:46.007Z,22.10
2019-04-30T16:34:14.574Z,24.50
2019-04-30T16:36:43.143Z,21.33
2019-04-30T16:39:11.749Z,21.97
2019-04-30T16:41:40.817Z,21.87
2019-04-30T16:44:09.597Z,25.63
2019-04-30T16:46:39.528Z,23.60
2019-04-30T16:49:09.981Z,25.17
2019-04-30T16:51:38.666Z,23.60
2019-04-30T16:54:08.677Z,24.80
2019-04-30T16:56:38.633Z,24.70
2019-04-30T16:59:08.970Z,23.37
2019-04-30T17:01:37.565Z,24.17
2019-04-30T17:04:13.851Z,22.03
2019-04-30T17:06:43.966Z,24.30
2019-04-30T17:09:14.044Z,22.90
2019-04-30T17:11:59.460Z,23.27
2019-04-30T17:14:30.745Z,24.33
2019-04-30T17:16:59.765Z,25.70
2019-04-30T17:19:29.241Z,24.47
2019-04-30T17:21:57.826Z,25.37
2019-04-30T17:24:26.371Z,25.63
2019-04-30T17:26:54.845Z,26.33
2019-04-30T17:29:23.289Z,26.20
2019-04-30T17:31:51.793Z,26.60
2019-04-30T17:34:20.253Z,29.07
2019-04-30T17:36:49.606Z,27.00
2019-04-30T17:39:19.947Z,28.63
2019-04-30T17:41:49.074Z,31.50
2019-04-30T17:44:18.674Z,28.83
2019-04-30T17:46:47.287Z,28.87
2019-04-30T17:49:15.739Z,27.40
2019-04-30T17:51:45.354Z,26.97
2019-04-30T17:54:14.190Z,26.67
2019-04-30T17:56:44.487Z,28.13
2019-04-30T17:59:13.769Z,29.37
2019-04-30T18:01:44.024Z,27.80
2019-04-30T18:04:12.455Z,29.40
2019-04-30T18:06:40.887Z,30.70
2019-04-30T18:09:11.071Z,27.90
2019-04-30T18:11:39.714Z,26.77
2019-04-30T18:14:09.410Z,29.00
2019-04-30T18:16:38.680Z,38.67
2019-04-30T18:19:25.347Z,59.53
2019-04-30T18:21:55.459Z,30.07
2019-04-30T18:24:25.700Z,30.93
2019-04-30T18:26:55.795Z,100.57
2019-04-30T18:29:24.247Z,35.03
2019-04-30T18:31:52.743Z,28.87
2019-04-30T18:34:21.249Z,29.00
2019-04-30T18:36:51.206Z,30.03
2019-04-30T18:39:19.997Z,31.20
2019-04-30T18:41:48.474Z,31.60
2019-04-30T18:44:17.074Z,28.90
2019-04-30T18:46:45.610Z,31.17
2019-04-30T18:49:14.035Z,29.67
2019-04-30T18:51:42.823Z,31.93
2019-04-30T18:54:11.425Z,31.90
2019-04-30T18:56:39.882Z,31.23
2019-04-30T18:59:08.903Z,29.90
2019-04-30T19:01:37.561Z,39.10
2019-04-30T19:04:06.088Z,34.13
2019-04-30T19:06:34.591Z,71.23
2019-04-30T19:09:10.445Z,33.87
2019-04-30T19:11:46.205Z,31.57
2019-04-30T19:14:19.401Z,31.10
2019-04-30T19:16:49.638Z,35.33
2019-04-30T19:19:19.785Z,39.07
2019-04-30T19:21:48.689Z,49.53
2019-04-30T19:24:17.335Z,41.70
2019-04-30T19:26:45.799Z,128.33
2019-04-30T19:29:14.249Z,35.33
2019-04-30T19:31:42.759Z,39.17
2019-04-30T19:34:11.200Z,45.93
2019-04-30T19:36:40.720Z,52.83
2019-04-30T19:39:09.880Z,39.43
2019-04-30T19:41:38.738Z,31.60
2019-04-30T19:44:07.283Z,34.10
2019-04-30T19:46:35.748Z,32.60
2019-04-30T19:49:04.161Z,52.13
2019-04-30T19:51:32.622Z,35.23
2019-04-30T19:54:01.073Z,36.93
2019-04-30T19:56:32.598Z,32.80
2019-04-30T19:59:05.145Z,72.10
2019-04-30T20:01:29.964Z,35.60
2019-04-30T20:03:58.804Z,31.90
2019-04-30T20:06:28.689Z,32.23
2019-04-30T20:08:58.794Z,38.60
2019-04-30T20:11:27.592Z,34.00
2019-04-30T20:13:56.145Z,30.37
2019-04-30T20:16:24.555Z,32.00
2019-04-30T20:18:52.976Z,31.97
2019-04-30T20:21:27.978Z,31.23
2019-04-30T20:23:53.236Z,31.87
2019-04-30T20:26:21.674Z,31.43
2019-04-30T20:28:50.195Z,34.70
2019-04-30T20:31:19.076Z,31.63
2019-04-30T20:33:48.980Z,35.43
2019-04-30T20:36:19.015Z,32.93
2019-04-30T20:38:55.270Z,32.73
2019-04-30T20:41:25.588Z,33.60
2019-04-30T20:43:54.163Z,32.23
2019-04-30T20:46:32.077Z,33.50
2019-04-30T20:48:52.854Z,34.90
2019-04-30T20:51:21.330Z,34.40
2019-04-30T20:53:49.792Z,33.83
2019-04-30T20:56:19.103Z,33.80
2019-04-30T20:58:57.191Z,34.27
2019-04-30T21:01:19.354Z,34.60
2019-04-30T21:03:48.058Z,33.23
2019-04-30T21:06:16.699Z,33.97
2019-04-30T21:08:45.156Z,33.93
2019-04-30T21:11:13.792Z,33.73
2019-04-30T21:13:42.356Z,33.83
2019-04-30T21:16:10.805Z,34.37
2019-04-30T21:18:39.332Z,30.83
2019-04-30T21:21:07.773Z,37.20
2019-04-30T21:23:36.274Z,34.40
2019-04-30T21:26:04.807Z,35.73
2019-04-30T21:28:33.253Z,33.93
2019-04-30T21:31:03.487Z,33.80
2019-04-30T21:33:38.475Z,35.97
2019-04-30T21:36:08.779Z,32.30
2019-04-30T21:38:38.945Z,34.30
2019-04-30T21:41:09.827Z,33.27
2019-04-30T21:43:37.746Z,34.57
2019-04-30T21:46:06.181Z,34.20
2019-04-30T21:48:34.633Z,35.37
2019-04-30T21:51:03.162Z,34.57
2019-04-30T21:53:31.595Z,34.07
2019-04-30T21:56:00.742Z,34.63
2019-04-30T21:58:29.301Z,32.20
2019-04-30T22:01:08.705Z,35.40
2019-04-30T22:03:39.409Z,33.57
2019-04-30T22:06:08.453Z,34.13
2019-04-30T22:08:38.830Z,34.83
2019-04-30T22:11:09.574Z,33.50
2019-04-30T22:13:39.468Z,32.90
2019-04-30T22:16:08.270Z,31.97
2019-04-30T22:18:36.823Z,33.50
2019-04-30T22:21:05.463Z,34.90
2019-04-30T22:23:33.987Z,31.03
2019-04-30T22:26:02.414Z,32.87
2019-04-30T22:28:30.889Z,35.77
2019-04-30T22:30:59.371Z,34.43
2019-04-30T22:33:29.237Z,33.23
2019-04-30T22:35:59.565Z,34.43
2019-04-30T22:38:35.291Z,32.93
2019-04-30T22:41:03.801Z,34.70
2019-04-30T22:43:32.253Z,35.77
2019-04-30T22:46:19.334Z,35.07
2019-04-30T22:48:47.591Z,36.20
2019-04-30T22:51:16.038Z,35.40
2019-04-30T22:53:44.500Z,34.13
2019-04-30T22:56:12.997Z,34.30
2019-04-30T22:58:41.483Z,34.47
2019-04-30T23:01:28.063Z,33.97
2019-04-30T23:04:04.087Z,35.23
2019-04-30T23:06:32.531Z,37.50
2019-04-30T23:09:01.034Z,35.17
2019-04-30T23:11:29.561Z,36.13
2019-04-30T23:13:58.014Z,35.77
2019-04-30T23:16:26.534Z,36.27
2019-04-30T23:18:55.240Z,37.73
2019-04-30T23:21:24.080Z,37.83
2019-04-30T23:23:52.559Z,38.83
2019-04-30T23:26:21.024Z,39.77
2019-04-30T23:28:49.828Z,41.27
2019-04-30T23:31:18.250Z,42.53
2019-04-30T23:33:46.702Z,41.27
2019-04-30T23:36:15.165Z,40.10
2019-04-30T23:38:43.574Z,41.03
2019-04-30T23:41:12.027Z,43.60
2019-04-30T23:43:40.440Z,43.67
2019-04-30T23:46:08.930Z,41.27
2019-04-30T23:48:37.378Z,41.87
2019-04-30T23:51:05.982Z,43.30
2019-04-30T23:53:34.428Z,42.90
2019-04-30T23:56:02.916Z,45.47
2019-04-30T23:58:31.360Z,43.27
